Mechanicsburg, Ohio
Current Conditions -  °F | °C
As of 11:55 AM on Friday 28 Nov 2014 (Local Time) from KUYF Reporting Station
Overcast Overcast  
Wind Chill: 17°   Ceiling: 8000
Heat Index: 27°   Visibility: 10mi
Dew Point: 18°   Wind: 9mph
Humidity: 69%   Direction: 190°S
Pressure: 30.31"   Gusts: NA
Location:  40.07°N, 83.56°W
Report Text: KUYF 281655Z AUTO 19008KT 10SM SCT025 OVC080 M03/M08 A3031 RMK AO2
Loading
Personal Weather Stations






























Interactive Weather Map New forecast layout! Learn more

10-Day Weather Forecast

Advertisements
Track Severe Weather on mobile